| time (UTC) | temp F | wind direction | speed MPH | gust MPH | rain 1hr in | rain 24hr in | rain mn in | humidity % | barometer mb |
| 20260506084404 | 51 | 152 | 4.0 | 8.0 | 0.00 | 0.00 | 0.00 | 60 | 1015.6 |
| 20260506084205 | 51 | 152 | 4.0 | 8.0 | 0.00 | 0.00 | 0.00 | 62 | 1015.6 |
| 20260506084004 | 51 | 152 | 4.0 | 8.0 | 0.00 | 0.00 | 0.00 | 62 | 1015.6 |
| 20260506083803 | 51 | 152 | 4.0 | 8.0 | 0.00 | 0.00 | 0.00 | 63 | 1015.7 |
| 20260506083603 | 51 | 148 | 3.0 | 8.0 | 0.00 | 0.00 | 0.00 | 64 | 1015.7 |
| 20260506083403 | 51 | 143 | 3.0 | 8.0 | 0.00 | 0.00 | 0.00 | 63 | 1015.6 |
| 20260506083203 | 50 | 146 | 3.0 | 8.0 | 0.00 | 0.00 | 0.00 | 62 | 1015.6 |
| 20260506083003 | 50 | 151 | 3.0 | 8.0 | 0.00 | 0.00 | 0.00 | 63 | 1015.6 |
| 20260506082804 | 50 | 157 | 3.0 | 8.0 | 0.00 | 0.00 | 0.00 | 62 | 1015.6 |
| 20260506082604 | 50 | 165 | 3.0 | 8.0 | 0.00 | 0.00 | 0.00 | 64 | 1015.6 |
| 20260506082403 | 50 | 175 | 2.0 | 6.0 | 0.00 | 0.00 | 0.00 | 64 | 1015.6 |
| 20260506082205 | 50 | 177 | 3.0 | 7.0 | 0.00 | 0.00 | 0.00 | 65 | 1015.6 |
| 20260506082004 | 49 | 176 | 2.0 | 7.0 | 0.00 | 0.00 | 0.00 | 65 | 1015.6 |
| 20260506081803 | 49 | 173 | 2.0 | 7.0 | 0.00 | 0.00 | 0.00 | 65 | 1015.6 |
| 20260506081603 | 49 | 169 | 3.0 | 7.0 | 0.00 | 0.00 | 0.00 | 64 | 1015.6 |
| 20260506081404 | 49 | 161 | 2.0 | 7.0 | 0.00 | 0.00 | 0.00 | 64 | 1015.6 |
| 20260506081203 | 49 | 157 | 2.0 | 6.0 | 0.00 | 0.00 | 0.00 | 65 | 1015.6 |
| 20260506081003 | 49 | 159 | 2.0 | 6.0 | 0.00 | 0.00 | 0.00 | 67 | 1015.6 |
| 20260506080804 | 49 | 162 | 2.0 | 6.0 | 0.00 | 0.00 | 0.00 | 68 | 1015.6 |
| 20260506080603 | 49 | 175 | 2.0 | 6.0 | 0.00 | 0.00 | 0.00 | 68 | 1015.6 |
| 20260506080404 | 48 | 190 | 2.0 | 6.0 | 0.00 | 0.00 | 0.00 | 69 | 1015.6 |
| 20260506080204 | 48 | 202 | 1.0 | 4.0 | 0.00 | 0.00 | 0.00 | 68 | 1015.7 |
| 20260506073403 | 45 | 352 | 1.0 | 4.0 | 0.00 | 0.00 | 0.00 | 72 | 1015.8 |
| 20260506073203 | 45 | 351 | 1.0 | 4.0 | 0.00 | 0.00 | 0.00 | 73 | 1015.9 |
| 20260506073003 | 44 | 350 | 1.0 | 4.0 | 0.00 | 0.00 | 0.00 | 73 | 1015.8 |
| 20260506072804 | 44 | 350 | 1.0 | 4.0 | 0.00 | 0.00 | 0.00 | 74 | 1015.9 |
| 20260506072603 | 43 | 349 | 1.0 | 2.0 | 0.00 | 0.00 | 0.00 | 72 | 1015.9 |
| 20260506072404 | 43 | 349 | 1.0 | 2.0 | 0.00 | 0.00 | 0.00 | 71 | 1015.9 |
| 20260506072203 | 44 | 349 | 1.0 | 2.0 | 0.00 | 0.00 | 0.00 | 71 | 1016.0 |
| 20260506072003 | 44 | 349 | 1.0 | 2.0 | 0.00 | 0.00 | 0.00 | 71 | 1015.9 |
| 20260506071803 | 44 | 349 | 1.0 | 2.0 | 0.00 | 0.00 | 0.00 | 72 | 1015.9 |
| 20260506071603 | 44 | 349 | 1.0 | 4.0 | 0.00 | 0.00 | 0.00 | 72 | 1015.9 |
| 20260506071403 | 44 | 349 | 1.0 | 4.0 | 0.00 | 0.00 | 0.00 | 72 | 1016.0 |
| 20260506071203 | 43 | 349 | 1.0 | 4.0 | 0.00 | 0.00 | 0.00 | 73 | 1015.9 |
| 20260506071004 | 43 | 349 | 1.0 | 4.0 | 0.00 | 0.00 | 0.00 | 73 | 1015.9 |
| 20260506070803 | 43 | 349 | 1.0 | 4.0 | 0.00 | 0.00 | 0.00 | 74 | 1016.0 |
| 20260506070604 | 42 | 349 | 2.0 | 4.0 | 0.00 | 0.00 | 0.00 | 74 | 1016.0 |
| 20260506070404 | 42 | 349 | 2.0 | 4.0 | 0.00 | 0.00 | 0.00 | 74 | 1016.0 |
| 20260506070204 | 42 | 349 | 2.0 | 4.0 | 0.00 | 0.00 | 0.00 | 74 | 1016.0 |
| 20260506062404 | 38 | 327 | 1.0 | 4.0 | 0.00 | 0.01 | 0.00 | 81 | 1015.9 |
| 20260506062204 | 38 | 326 | 1.0 | 4.0 | 0.00 | 0.01 | 0.00 | 81 | 1016.0 |
| 20260506062004 | 38 | 326 | 1.0 | 2.0 | 0.00 | 0.01 | 0.00 | 82 | 1015.9 |
| 20260506061803 | 38 | 326 | 1.0 | 2.0 | 0.00 | 0.01 | 0.00 | 83 | 1015.9 |
| 20260506061603 | 37 | 326 | 1.0 | 2.0 | 0.00 | 0.01 | 0.00 | 83 | 1015.9 |
| 20260506061404 | 37 | 326 | 1.0 | 2.0 | 0.00 | 0.01 | 0.00 | 83 | 1015.9 |
| 20260506061204 | 37 | 326 | 1.0 | 2.0 | 0.00 | 0.01 | 0.00 | 83 | 1015.9 |
| 20260506061003 | 37 | 326 | 1.0 | 2.0 | 0.00 | 0.01 | 0.00 | 83 | 1015.8 |
| 20260506060803 | 37 | 326 | 1.0 | 2.0 | 0.00 | 0.01 | 0.00 | 83 | 1015.9 |
| 20260506060604 | 36 | 326 | 1.0 | 2.0 | 0.00 | 0.01 | 0.00 | 83 | 1015.9 |
| 20260506060404 | 37 | 326 | 1.0 | 2.0 | 0.00 | 0.01 | 0.00 | 84 | 1016.0 |
| 20260506060203 | 37 | 326 | 1.0 | 2.0 | 0.00 | 0.01 | 0.00 | 84 | 1016.0 |
| 20260506051404 | 31 | 0 | 0.0 | 0.0 | 0.00 | 0.01 | 0.00 | 88 | 1016.2 |
| 20260506051203 | 31 | 0 | 0.0 | 0.0 | 0.00 | 0.01 | 0.00 | 88 | 1016.2 |
| 20260506051004 | 31 | 325 | 0.0 | 1.0 | 0.00 | 0.01 | 0.00 | 88 | 1016.2 |
| 20260506050803 | 31 | 325 | 0.0 | 1.0 | 0.00 | 0.01 | 0.00 | 89 | 1016.2 |
| 20260506050605 | 31 | 325 | 0.0 | 1.0 | 0.00 | 0.01 | 0.00 | 89 | 1016.1 |
| 20260506050403 | 31 | 325 | 0.0 | 1.0 | 0.00 | 0.01 | 0.00 | 89 | 1016.2 |
| 20260506050203 | 31 | 325 | 0.0 | 1.0 | 0.00 | 0.01 | 0.00 | 89 | 1016.2 |
| 20260506045003 | 30 | 0 | 0.0 | 0.0 | 0.00 | 0.01 | 0.00 | 88 | 1016.2 |
| 20260506044803 | 30 | 325 | 0.0 | 1.0 | 0.00 | 0.01 | 0.00 | 88 | 1016.2 |
| 20260506044604 | 30 | 325 | 0.0 | 1.0 | 0.00 | 0.01 | 0.00 | 88 | 1016.2 |
| 20260506044404 | 30 | 325 | 0.0 | 1.0 | 0.00 | 0.01 | 0.00 | 88 | 1016.3 |
| 20260506044204 | 30 | 325 | 0.0 | 1.0 | 0.00 | 0.01 | 0.00 | 88 | 1016.3 |
| 20260506044003 | 30 | 325 | 0.0 | 1.0 | 0.00 | 0.01 | 0.00 | 88 | 1016.2 |
| 20260506043803 | 30 | 0 | 0.0 | 0.0 | 0.00 | 0.01 | 0.00 | 88 | 1016.2 |
| 20260506043604 | 30 | 0 | 0.0 | 0.0 | 0.00 | 0.01 | 0.00 | 88 | 1016.2 |
| 20260506043403 | 30 | 0 | 0.0 | 0.0 | 0.00 | 0.01 | 0.00 | 88 | 1016.3 |
| 20260506043204 | 30 | 0 | 0.0 | 0.0 | 0.00 | 0.01 | 0.00 | 88 | 1016.4 |
| 20260506043003 | 30 | 0 | 0.0 | 0.0 | 0.00 | 0.01 | 0.00 | 88 | 1016.2 |
| 20260506042803 | 30 | 0 | 0.0 | 0.0 | 0.00 | 0.01 | 0.00 | 88 | 1016.2 |
| 20260506042604 | 30 | 0 | 0.0 | 0.0 | 0.00 | 0.01 | 0.00 | 87 | 1016.2 |
| 20260506042403 | 30 | 0 | 0.0 | 0.0 | 0.00 | 0.01 | 0.00 | 87 | 1016.2 |
| 20260506042203 | 30 | 0 | 0.0 | 0.0 | 0.00 | 0.01 | 0.00 | 87 | 1016.3 |
| 20260506042004 | 30 | 0 | 0.0 | 0.0 | 0.00 | 0.01 | 0.00 | 87 | 1016.3 |
| 20260506041803 | 30 | 0 | 0.0 | 0.0 | 0.00 | 0.01 | 0.00 | 87 | 1016.3 |
| 20260506041603 | 30 | 0 | 0.0 | 0.0 | 0.00 | 0.01 | 0.00 | 88 | 1016.3 |
| 20260506041404 | 30 | 0 | 0.0 | 0.0 | 0.00 | 0.01 | 0.00 | 88 | 1016.3 |
| 20260506041203 | 30 | 0 | 0.0 | 0.0 | 0.00 | 0.01 | 0.00 | 88 | 1016.3 |
| 20260506041004 | 30 | 0 | 0.0 | 0.0 | 0.00 | 0.01 | 0.00 | 87 | 1016.3 |
| 20260506040803 | 30 | 0 | 0.0 | 0.0 | 0.00 | 0.01 | 0.00 | 87 | 1016.2 |
| 20260506040603 | 30 | 0 | 0.0 | 0.0 | 0.00 | 0.01 | 0.00 | 87 | 1016.2 |
| 20260506040404 | 30 | 0 | 0.0 | 0.0 | 0.00 | 0.01 | 0.00 | 88 | 1016.2 |
| 20260506040203 | 30 | 0 | 0.0 | 0.0 | 0.00 | 0.01 | 0.00 | 88 | 1016.3 |
| 20260506040003 | 30 | 0 | 0.0 | 0.0 | 0.00 | 0.01 | 0.00 | 87 | 1016.3 |
| 20260506035804 | 30 | 0 | 0.0 | 0.0 | 0.00 | 0.01 | 0.00 | 87 | 1016.2 |
| 20260506035603 | 30 | 0 | 0.0 | 0.0 | 0.00 | 0.01 | 0.00 | 87 | 1016.2 |
| 20260506035404 | 30 | 0 | 0.0 | 0.0 | 0.00 | 0.01 | 0.00 | 87 | 1016.3 |
| 20260506035203 | 30 | 0 | 0.0 | 0.0 | 0.00 | 0.01 | 0.00 | 87 | 1016.3 |
| 20260506035003 | 30 | 0 | 0.0 | 0.0 | 0.00 | 0.01 | 0.00 | 87 | 1016.2 |
| 20260506034803 | 30 | 0 | 0.0 | 0.0 | 0.00 | 0.01 | 0.00 | 87 | 1016.3 |
| 20260506034604 | 30 | 0 | 0.0 | 0.0 | 0.00 | 0.01 | 0.00 | 87 | 1016.2 |
| 20260506034403 | 30 | 0 | 0.0 | 0.0 | 0.00 | 0.01 | 0.00 | 87 | 1016.3 |
| 20260506034204 | 30 | 0 | 0.0 | 0.0 | 0.00 | 0.01 | 0.00 | 87 | 1016.3 |
| 20260506034004 | 30 | 0 | 0.0 | 0.0 | 0.00 | 0.01 | 0.00 | 87 | 1016.2 |
| 20260506033803 | 30 | 0 | 0.0 | 0.0 | 0.00 | 0.01 | 0.00 | 87 | 1016.3 |
| 20260506033604 | 31 | 0 | 0.0 | 0.0 | 0.00 | 0.01 | 0.00 | 87 | 1016.4 |
| 20260506033403 | 31 | 0 | 0.0 | 0.0 | 0.00 | 0.01 | 0.00 | 87 | 1016.3 |
| 20260506033204 | 31 | 0 | 0.0 | 0.0 | 0.00 | 0.01 | 0.00 | 87 | 1016.3 |
| 20260506033005 | 31 | 0 | 0.0 | 0.0 | 0.00 | 0.01 | 0.00 | 87 | 1016.2 |
| 20260506032803 | 31 | 0 | 0.0 | 0.0 | 0.00 | 0.01 | 0.00 | 87 | 1016.4 |
| 20260506032603 | 31 | 0 | 0.0 | 0.0 | 0.00 | 0.01 | 0.00 | 87 | 1016.4 |
| 20260506032403 | 31 | 0 | 0.0 | 0.0 | 0.00 | 0.01 | 0.00 | 87 | 1016.3 |
| 20260506032203 | 31 | 0 | 0.0 | 0.0 | 0.00 | 0.01 | 0.00 | 87 | 1016.4 |
| 20260506032004 | 31 | 0 | 0.0 | 0.0 | 0.00 | 0.01 | 0.00 | 87 | 1016.4 |
| 20260506031804 | 31 | 0 | 0.0 | 0.0 | 0.00 | 0.01 | 0.00 | 87 | 1016.4 |
| 20260506031603 | 31 | 0 | 0.0 | 0.0 | 0.00 | 0.01 | 0.00 | 87 | 1016.4 |
| 20260506031403 | 31 | 0 | 0.0 | 0.0 | 0.00 | 0.01 | 0.00 | 87 | 1016.4 |
| 20260506031204 | 31 | 0 | 0.0 | 0.0 | 0.00 | 0.01 | 0.00 | 87 | 1016.5 |
| 20260506031006 | 31 | 0 | 0.0 | 0.0 | 0.00 | 0.01 | 0.00 | 87 | 1016.4 |
| 20260506030803 | 31 | 0 | 0.0 | 0.0 | 0.00 | 0.01 | 0.00 | 87 | 1016.5 |
| 20260506030604 | 31 | 0 | 0.0 | 0.0 | 0.00 | 0.01 | 0.00 | 87 | 1016.5 |
| 20260506030403 | 31 | 0 | 0.0 | 0.0 | 0.00 | 0.01 | 0.00 | 86 | 1016.5 |
| 20260506030004 | 31 | 0 | 0.0 | 0.0 | 0.00 | 0.01 | 0.00 | 86 | 1016.5 |
| 20260506025803 | 31 | 0 | 0.0 | 0.0 | 0.00 | 0.01 | 0.00 | 86 | 1016.5 |
| 20260506025604 | 31 | 0 | 0.0 | 0.0 | 0.00 | 0.01 | 0.00 | 86 | 1016.5 |
| 20260506025405 | 31 | 0 | 0.0 | 0.0 | 0.00 | 0.01 | 0.00 | 86 | 1016.4 |
| 20260506025203 | 31 | 0 | 0.0 | 0.0 | 0.00 | 0.01 | 0.00 | 86 | 1016.4 |
| 20260506025004 | 32 | 0 | 0.0 | 0.0 | 0.00 | 0.01 | 0.00 | 86 | 1016.3 |
| 20260506024804 | 32 | 0 | 0.0 | 0.0 | 0.00 | 0.01 | 0.00 | 86 | 1016.4 |
| 20260506024603 | 32 | 0 | 0.0 | 0.0 | 0.00 | 0.01 | 0.00 | 86 | 1016.3 |
| 20260506024403 | 32 | 0 | 0.0 | 0.0 | 0.00 | 0.01 | 0.00 | 86 | 1016.4 |
| 20260506024203 | 32 | 325 | 0.0 | 2.0 | 0.00 | 0.01 | 0.00 | 86 | 1016.4 |
| 20260506024004 | 32 | 325 | 0.0 | 2.0 | 0.00 | 0.01 | 0.00 | 86 | 1016.4 |
| 20260506023805 | 32 | 325 | 0.0 | 2.0 | 0.00 | 0.01 | 0.00 | 86 | 1016.5 |
| 20260506023604 | 32 | 325 | 0.0 | 2.0 | 0.00 | 0.01 | 0.00 | 86 | 1016.4 |
| 20260506023403 | 32 | 325 | 0.0 | 2.0 | 0.00 | 0.01 | 0.00 | 86 | 1016.4 |
| 20260506023203 | 32 | 325 | 0.0 | 1.0 | 0.00 | 0.01 | 0.00 | 86 | 1016.4 |
| 20260506023003 | 32 | 0 | 0.0 | 0.0 | 0.00 | 0.01 | 0.00 | 86 | 1016.4 |
| 20260506022805 | 32 | 0 | 0.0 | 0.0 | 0.00 | 0.01 | 0.00 | 86 | 1016.3 |
| 20260506022604 | 32 | 0 | 0.0 | 0.0 | 0.00 | 0.01 | 0.00 | 86 | 1016.3 |
| 20260506022403 | 32 | 0 | 0.0 | 0.0 | 0.00 | 0.01 | 0.00 | 85 | 1016.4 |
| 20260506022203 | 32 | 0 | 0.0 | 0.0 | 0.00 | 0.01 | 0.00 | 85 | 1016.4 |
| 20260506022003 | 32 | 0 | 0.0 | 0.0 | 0.00 | 0.01 | 0.00 | 85 | 1016.5 |
| 20260506021804 | 32 | 0 | 0.0 | 0.0 | 0.00 | 0.01 | 0.00 | 85 | 1016.4 |
| 20260506021603 | 33 | 325 | 0.0 | 1.0 | 0.00 | 0.01 | 0.00 | 86 | 1016.4 |
| 20260506021403 | 33 | 325 | 0.0 | 1.0 | 0.00 | 0.01 | 0.00 | 86 | 1016.4 |
| 20260506021203 | 33 | 325 | 0.0 | 1.0 | 0.00 | 0.01 | 0.00 | 86 | 1016.4 |
| 20260506021003 | 33 | 325 | 0.0 | 1.0 | 0.00 | 0.01 | 0.00 | 86 | 1016.4 |
| 20260506020803 | 33 | 325 | 0.0 | 1.0 | 0.00 | 0.01 | 0.00 | 86 | 1016.4 |
| 20260506020604 | 33 | 325 | 0.0 | 1.0 | 0.00 | 0.01 | 0.00 | 85 | 1016.4 |
| 20260506020404 | 33 | 0 | 0.0 | 0.0 | 0.00 | 0.01 | 0.00 | 85 | 1016.4 |
| 20260506020203 | 33 | 0 | 0.0 | 0.0 | 0.00 | 0.01 | 0.00 | 85 | 1016.4 |
| 20260506020003 | 33 | 0 | 0.0 | 0.0 | 0.00 | 0.01 | 0.00 | 86 | 1016.4 |
| 20260506015803 | 33 | 0 | 0.0 | 0.0 | 0.00 | 0.01 | 0.00 | 86 | 1016.4 |
| 20260506015603 | 34 | 0 | 0.0 | 0.0 | 0.00 | 0.01 | 0.00 | 86 | 1016.4 |
| 20260506015403 | 34 | 0 | 0.0 | 0.0 | 0.00 | 0.01 | 0.00 | 86 | 1016.4 |
| 20260506015203 | 34 | 325 | 0.0 | 1.0 | 0.00 | 0.01 | 0.00 | 86 | 1016.5 |
| 20260506015004 | 34 | 325 | 0.0 | 2.0 | 0.00 | 0.01 | 0.00 | 86 | 1016.6 |
| 20260506014803 | 34 | 325 | 1.0 | 2.0 | 0.00 | 0.01 | 0.00 | 86 | 1016.6 |
| 20260506014604 | 34 | 326 | 1.0 | 4.0 | 0.00 | 0.01 | 0.00 | 86 | 1016.6 |
| 20260506014403 | 34 | 326 | 1.0 | 4.0 | 0.00 | 0.01 | 0.00 | 86 | 1016.6 |
| 20260506014204 | 34 | 326 | 1.0 | 4.0 | 0.00 | 0.01 | 0.00 | 86 | 1016.6 |
| 20260506014003 | 34 | 326 | 1.0 | 4.0 | 0.00 | 0.01 | 0.00 | 86 | 1016.6 |
| 20260506013804 | 34 | 327 | 1.0 | 4.0 | 0.00 | 0.01 | 0.00 | 86 | 1016.6 |
| 20260506013604 | 34 | 327 | 1.0 | 2.0 | 0.00 | 0.01 | 0.00 | 86 | 1016.6 |
| 20260506013404 | 34 | 327 | 1.0 | 2.0 | 0.00 | 0.01 | 0.00 | 86 | 1016.6 |
| 20260506013204 | 34 | 327 | 1.0 | 2.0 | 0.00 | 0.01 | 0.00 | 86 | 1016.7 |
| 20260506013003 | 34 | 327 | 0.0 | 4.0 | 0.00 | 0.01 | 0.00 | 86 | 1016.6 |
| 20260506012803 | 34 | 327 | 0.0 | 4.0 | 0.00 | 0.01 | 0.00 | 86 | 1016.7 |
| 20260506012604 | 34 | 327 | 0.0 | 4.0 | 0.00 | 0.01 | 0.00 | 86 | 1016.7 |
| 20260506012405 | 34 | 327 | 0.0 | 4.0 | 0.00 | 0.01 | 0.00 | 86 | 1016.7 |
| 20260506012204 | 34 | 327 | 0.0 | 4.0 | 0.00 | 0.01 | 0.00 | 86 | 1016.7 |
| 20260506012003 | 34 | 327 | 0.0 | 1.0 | 0.00 | 0.01 | 0.00 | 86 | 1016.7 |
| 20260506011803 | 33 | 327 | 0.0 | 1.0 | 0.00 | 0.01 | 0.00 | 86 | 1016.7 |
| 20260506011604 | 33 | 0 | 0.0 | 0.0 | 0.00 | 0.01 | 0.00 | 86 | 1016.7 |
| 20260506011403 | 33 | 327 | 0.0 | 2.0 | 0.00 | 0.01 | 0.00 | 85 | 1016.7 |
| 20260506011203 | 33 | 327 | 0.0 | 2.0 | 0.00 | 0.01 | 0.00 | 85 | 1016.7 |
| 20260506011004 | 33 | 327 | 1.0 | 4.0 | 0.00 | 0.01 | 0.00 | 85 | 1016.7 |
| 20260506010804 | 33 | 327 | 1.0 | 4.0 | 0.00 | 0.01 | 0.00 | 85 | 1016.7 |
| 20260506010604 | 33 | 327 | 1.0 | 4.0 | 0.00 | 0.01 | 0.00 | 85 | 1016.7 |
| 20260506010404 | 33 | 327 | 1.0 | 4.0 | 0.00 | 0.01 | 0.00 | 85 | 1016.7 |
| 20260506010204 | 33 | 327 | 1.0 | 4.0 | 0.00 | 0.01 | 0.00 | 84 | 1016.7 |
| 20260506010003 | 33 | 327 | 2.0 | 4.0 | 0.00 | 0.01 | 0.00 | 84 | 1016.7 |
| 20260506005803 | 34 | 328 | 2.0 | 4.0 | 0.00 | 0.01 | 0.00 | 84 | 1016.7 |
| 20260506005603 | 34 | 328 | 2.0 | 4.0 | 0.00 | 0.01 | 0.00 | 84 | 1016.7 |
| 20260506005403 | 34 | 328 | 3.0 | 6.0 | 0.00 | 0.01 | 0.00 | 84 | 1016.9 |
| 20260506005203 | 34 | 328 | 2.0 | 6.0 | 0.00 | 0.01 | 0.00 | 84 | 1016.9 |
| 20260506005003 | 34 | 327 | 2.0 | 6.0 | 0.00 | 0.01 | 0.00 | 84 | 1016.8 |
| 20260506004803 | 34 | 327 | 1.0 | 6.0 | 0.00 | 0.01 | 0.00 | 84 | 1016.7 |
| 20260506004604 | 34 | 327 | 1.0 | 6.0 | 0.00 | 0.01 | 0.00 | 84 | 1016.8 |
| 20260506004404 | 34 | 325 | 0.0 | 2.0 | 0.00 | 0.01 | 0.00 | 84 | 1016.7 |
| 20260506004204 | 34 | 0 | 0.0 | 0.0 | 0.00 | 0.01 | 0.00 | 84 | 1016.7 |
| 20260506004003 | 34 | 0 | 0.0 | 0.0 | 0.00 | 0.01 | 0.00 | 84 | 1016.7 |
| 20260506003804 | 34 | 0 | 0.0 | 0.0 | 0.00 | 0.01 | 0.00 | 83 | 1016.7 |
| 20260506003603 | 34 | 325 | 0.0 | 1.0 | 0.00 | 0.01 | 0.00 | 83 | 1016.8 |
| 20260506003403 | 34 | 325 | 0.0 | 2.0 | 0.00 | 0.01 | 0.00 | 83 | 1016.7 |
| 20260506003204 | 34 | 325 | 0.0 | 2.0 | 0.00 | 0.01 | 0.00 | 83 | 1016.8 |
| 20260506003003 | 34 | 325 | 1.0 | 2.0 | 0.00 | 0.01 | 0.00 | 83 | 1016.8 |
| 20260506002803 | 34 | 325 | 1.0 | 4.0 | 0.00 | 0.01 | 0.00 | 83 | 1016.8 |
| 20260506002603 | 34 | 325 | 1.0 | 4.0 | 0.00 | 0.01 | 0.00 | 83 | 1016.7 |
| 20260506002404 | 34 | 326 | 2.0 | 5.0 | 0.00 | 0.01 | 0.00 | 83 | 1016.7 |
| 20260506002204 | 34 | 327 | 2.0 | 5.0 | 0.00 | 0.01 | 0.00 | 83 | 1016.7 |
| 20260506002003 | 35 | 328 | 2.0 | 5.0 | 0.00 | 0.01 | 0.00 | 83 | 1016.7 |
| 20260506001803 | 35 | 329 | 2.0 | 5.0 | 0.00 | 0.01 | 0.00 | 83 | 1016.7 |
| 20260506001604 | 35 | 330 | 2.0 | 5.0 | 0.00 | 0.01 | 0.00 | 82 | 1016.7 |
| 20260506001403 | 35 | 331 | 1.0 | 4.0 | 0.00 | 0.01 | 0.00 | 82 | 1016.7 |
| 20260506001204 | 35 | 330 | 1.0 | 4.0 | 0.00 | 0.01 | 0.00 | 82 | 1016.7 |
| 20260506001003 | 35 | 330 | 1.0 | 4.0 | 0.00 | 0.01 | 0.00 | 82 | 1016.7 |
| 20260506000803 | 35 | 330 | 0.0 | 2.0 | 0.00 | 0.01 | 0.00 | 82 | 1016.6 |
| 20260506000604 | 35 | 330 | 0.0 | 2.0 | 0.00 | 0.01 | 0.00 | 82 | 1016.6 |
| 20260506000403 | 35 | 0 | 0.0 | 0.0 | 0.00 | 0.01 | 0.00 | 82 | 1016.7 |
| 20260506000204 | 36 | 0 | 0.0 | 0.0 | 0.00 | 0.01 | 0.00 | 82 | 1016.7 |
| 20260506000003 | 36 | 0 | 0.0 | 0.0 | 0.00 | 0.01 | 0.00 | 81 | 1016.6 |
| 20260505235804 | 36 | 0 | 0.0 | 0.0 | 0.00 | 0.01 | 0.00 | 81 | 1016.6 |
| 20260505235603 | 36 | 330 | 0.0 | 1.0 | 0.00 | 0.01 | 0.00 | 81 | 1016.7 |
| 20260505235403 | 36 | 330 | 0.0 | 1.0 | 0.00 | 0.01 | 0.00 | 81 | 1016.7 |
| 20260505235204 | 36 | 330 | 0.0 | 1.0 | 0.00 | 0.01 | 0.00 | 82 | 1016.6 |
| 20260505235004 | 36 | 330 | 0.0 | 1.0 | 0.00 | 0.01 | 0.00 | 82 | 1016.7 |
| 20260505234803 | 36 | 330 | 0.0 | 1.0 | 0.00 | 0.01 | 0.00 | 82 | 1016.6 |
| 20260505234604 | 36 | 330 | 0.0 | 2.0 | 0.00 | 0.01 | 0.00 | 82 | 1016.7 |
| 20260505234404 | 36 | 330 | 0.0 | 2.0 | 0.00 | 0.01 | 0.00 | 82 | 1016.6 |
| 20260505234204 | 36 | 330 | 1.0 | 2.0 | 0.00 | 0.01 | 0.00 | 82 | 1016.6 |
| 20260505234004 | 36 | 330 | 1.0 | 2.0 | 0.00 | 0.01 | 0.00 | 82 | 1016.7 |
| 20260505233804 | 36 | 330 | 1.0 | 2.0 | 0.00 | 0.01 | 0.00 | 82 | 1016.6 |
| 20260505233603 | 36 | 330 | 1.0 | 4.0 | 0.00 | 0.01 | 0.00 | 82 | 1016.6 |
| 20260505233404 | 36 | 332 | 2.0 | 4.0 | 0.00 | 0.01 | 0.00 | 82 | 1016.7 |
| 20260505233203 | 36 | 333 | 2.0 | 4.0 | 0.00 | 0.01 | 0.00 | 82 | 1016.7 |
| 20260505233003 | 36 | 334 | 2.0 | 4.0 | 0.00 | 0.01 | 0.00 | 82 | 1016.7 |
| 20260505232804 | 36 | 336 | 2.0 | 4.0 | 0.00 | 0.01 | 0.00 | 82 | 1016.7 |
| 20260505232603 | 36 | 338 | 2.0 | 4.0 | 0.00 | 0.01 | 0.00 | 82 | 1016.7 |
| 20260505232404 | 36 | 339 | 2.0 | 4.0 | 0.00 | 0.01 | 0.00 | 82 | 1016.7 |
| 20260505232203 | 36 | 340 | 2.0 | 4.0 | 0.00 | 0.01 | 0.00 | 82 | 1016.7 |
| 20260505232003 | 36 | 341 | 1.0 | 4.0 | 0.00 | 0.01 | 0.00 | 82 | 1016.9 |
| 20260505231804 | 36 | 341 | 1.0 | 4.0 | 0.00 | 0.01 | 0.00 | 82 | 1016.8 |
| 20260505231604 | 36 | 341 | 1.0 | 4.0 | 0.00 | 0.01 | 0.00 | 82 | 1016.8 |
| 20260505231404 | 36 | 341 | 1.0 | 4.0 | 0.00 | 0.01 | 0.00 | 82 | 1016.7 |
| 20260505231204 | 36 | 341 | 1.0 | 2.0 | 0.00 | 0.01 | 0.00 | 82 | 1016.8 |
| 20260505231003 | 36 | 341 | 1.0 | 2.0 | 0.00 | 0.01 | 0.00 | 82 | 1016.7 |
| 20260505230804 | 36 | 341 | 1.0 | 2.0 | 0.00 | 0.01 | 0.00 | 82 | 1016.8 |
| 20260505230603 | 36 | 341 | 1.0 | 2.0 | 0.00 | 0.01 | 0.00 | 82 | 1016.7 |
| 20260505230403 | 36 | 341 | 1.0 | 2.0 | 0.00 | 0.01 | 0.00 | 82 | 1016.8 |
| 20260505230204 | 36 | 341 | 1.0 | 2.0 | 0.00 | 0.01 | 0.00 | 82 | 1016.8 |
| 20260505230004 | 36 | 341 | 1.0 | 2.0 | 0.00 | 0.01 | 0.00 | 82 | 1016.8 |
| 20260505225804 | 36 | 341 | 1.0 | 2.0 | 0.00 | 0.01 | 0.01 | 82 | 1016.8 |
| 20260505225603 | 36 | 341 | 1.0 | 2.0 | 0.00 | 0.01 | 0.01 | 82 | 1016.7 |
| 20260505225403 | 36 | 341 | 1.0 | 2.0 | 0.00 | 0.01 | 0.01 | 82 | 1016.7 |
| 20260505225203 | 36 | 341 | 1.0 | 2.0 | 0.00 | 0.01 | 0.01 | 81 | 1016.7 |
| 20260505225004 | 36 | 341 | 0.0 | 2.0 | 0.00 | 0.01 | 0.01 | 81 | 1016.8 |
| 20260505224803 | 36 | 341 | 0.0 | 1.0 | 0.00 | 0.01 | 0.01 | 81 | 1016.8 |
| 20260505224604 | 36 | 341 | 0.0 | 1.0 | 0.00 | 0.01 | 0.01 | 81 | 1016.8 |
| 20260505224403 | 36 | 341 | 0.0 | 2.0 | 0.00 | 0.01 | 0.01 | 81 | 1016.8 |
| 20260505224203 | 37 | 341 | 0.0 | 2.0 | 0.00 | 0.01 | 0.01 | 81 | 1016.9 |
| 20260505224003 | 37 | 341 | 1.0 | 2.0 | 0.00 | 0.01 | 0.01 | 81 | 1016.8 |
| 20260505223804 | 37 | 341 | 1.0 | 2.0 | 0.00 | 0.01 | 0.01 | 81 | 1016.9 |
| 20260505223604 | 37 | 341 | 1.0 | 2.0 | 0.00 | 0.01 | 0.01 | 81 | 1016.9 |
| 20260505223404 | 37 | 341 | 2.0 | 2.0 | 0.00 | 0.01 | 0.01 | 81 | 1016.9 |
| 20260505223203 | 37 | 341 | 1.0 | 2.0 | 0.00 | 0.01 | 0.01 | 81 | 1016.9 |
| 20260505223003 | 37 | 341 | 1.0 | 2.0 | 0.00 | 0.01 | 0.01 | 81 | 1017.0 |
| 20260505222803 | 37 | 341 | 1.0 | 2.0 | 0.00 | 0.01 | 0.01 | 81 | 1016.9 |
| 20260505222605 | 37 | 341 | 1.0 | 2.0 | 0.00 | 0.01 | 0.01 | 81 | 1017.0 |
| 20260505222405 | 37 | 341 | 0.0 | 2.0 | 0.00 | 0.01 | 0.01 | 81 | 1017.0 |
| 20260505222203 | 37 | 341 | 0.0 | 1.0 | 0.00 | 0.01 | 0.01 | 81 | 1017.0 |
| 20260505222004 | 37 | 341 | 0.0 | 1.0 | 0.00 | 0.01 | 0.01 | 81 | 1017.0 |
| 20260505221803 | 37 | 341 | 0.0 | 2.0 | 0.00 | 0.01 | 0.01 | 81 | 1017.0 |
| 20260505221604 | 38 | 341 | 0.0 | 2.0 | 0.00 | 0.01 | 0.01 | 81 | 1017.0 |
| 20260505221404 | 38 | 341 | 0.0 | 2.0 | 0.00 | 0.01 | 0.01 | 81 | 1017.1 |
| 20260505221203 | 38 | 341 | 0.0 | 2.0 | 0.00 | 0.01 | 0.01 | 80 | 1017.1 |
| 20260505221004 | 38 | 341 | 0.0 | 2.0 | 0.00 | 0.01 | 0.01 | 80 | 1017.1 |
| 20260505220803 | 38 | 341 | 0.0 | 2.0 | 0.00 | 0.01 | 0.01 | 81 | 1017.1 |
| 20260505220604 | 38 | 341 | 1.0 | 2.0 | 0.00 | 0.01 | 0.01 | 81 | 1017.1 |
| 20260505220403 | 38 | 341 | 1.0 | 2.0 | 0.00 | 0.01 | 0.01 | 80 | 1017.1 |
| 20260505220203 | 38 | 341 | 1.0 | 2.0 | 0.00 | 0.01 | 0.01 | 80 | 1017.2 |
| 20260505220003 | 38 | 341 | 1.0 | 2.0 | 0.00 | 0.01 | 0.01 | 80 | 1017.1 |
| 20260505215804 | 38 | 341 | 1.0 | 2.0 | 0.00 | 0.01 | 0.01 | 80 | 1017.1 |
| 20260505215603 | 38 | 341 | 1.0 | 2.0 | 0.00 | 0.01 | 0.01 | 80 | 1017.2 |
| 20260505215404 | 38 | 341 | 1.0 | 2.0 | 0.00 | 0.01 | 0.01 | 80 | 1017.1 |
| 20260505215205 | 38 | 341 | 1.0 | 2.0 | 0.00 | 0.01 | 0.01 | 80 | 1017.1 |
| 20260505215003 | 38 | 341 | 0.0 | 2.0 | 0.00 | 0.01 | 0.01 | 80 | 1017.2 |
| 20260505214803 | 38 | 341 | 0.0 | 2.0 | 0.00 | 0.01 | 0.01 | 80 | 1017.2 |
| 20260505214604 | 38 | 341 | 0.0 | 2.0 | 0.00 | 0.01 | 0.01 | 80 | 1017.2 |
| 20260505214403 | 38 | 341 | 1.0 | 2.0 | 0.00 | 0.01 | 0.01 | 79 | 1017.2 |
| 20260505214204 | 38 | 341 | 1.0 | 2.0 | 0.00 | 0.01 | 0.01 | 79 | 1017.2 |
| 20260505214004 | 39 | 341 | 1.0 | 2.0 | 0.00 | 0.01 | 0.01 | 79 | 1017.1 |
| 20260505213803 | 39 | 341 | 1.0 | 2.0 | 0.00 | 0.01 | 0.01 | 79 | 1017.2 |
| 20260505213604 | 39 | 341 | 1.0 | 2.0 | 0.00 | 0.01 | 0.01 | 79 | 1017.2 |
| 20260505213403 | 39 | 341 | 1.0 | 2.0 | 0.00 | 0.01 | 0.01 | 79 | 1017.2 |
| 20260505213203 | 39 | 341 | 0.0 | 2.0 | 0.00 | 0.01 | 0.01 | 79 | 1017.2 |
| 20260505213004 | 39 | 341 | 0.0 | 2.0 | 0.00 | 0.01 | 0.01 | 79 | 1017.2 |
| 20260505212804 | 39 | 341 | 1.0 | 2.0 | 0.00 | 0.01 | 0.01 | 79 | 1017.2 |
| 20260505212604 | 39 | 341 | 1.0 | 2.0 | 0.00 | 0.01 | 0.01 | 79 | 1017.2 |
| 20260505212403 | 39 | 341 | 1.0 | 2.0 | 0.00 | 0.01 | 0.01 | 78 | 1017.1 |
| 20260505212203 | 39 | 341 | 1.0 | 2.0 | 0.00 | 0.01 | 0.01 | 78 | 1017.1 |
| 20260505212004 | 39 | 341 | 1.0 | 2.0 | 0.00 | 0.01 | 0.01 | 78 | 1017.1 |
| 20260505211803 | 39 | 341 | 1.0 | 4.0 | 0.00 | 0.01 | 0.01 | 78 | 1017.0 |
| 20260505211603 | 39 | 341 | 1.0 | 4.0 | 0.00 | 0.01 | 0.01 | 78 | 1017.1 |
| 20260505211404 | 39 | 341 | 1.0 | 4.0 | 0.00 | 0.01 | 0.01 | 78 | 1017.0 |
| 20260505211205 | 39 | 341 | 1.0 | 4.0 | 0.00 | 0.01 | 0.01 | 78 | 1017.0 |
| 20260505211003 | 39 | 341 | 1.0 | 4.0 | 0.00 | 0.01 | 0.01 | 78 | 1017.0 |
| 20260505210805 | 39 | 341 | 1.0 | 2.0 | 0.00 | 0.01 | 0.01 | 78 | 1017.1 |
| 20260505210603 | 40 | 341 | 0.0 | 2.0 | 0.00 | 0.01 | 0.01 | 78 | 1017.0 |
| 20260505210403 | 40 | 341 | 0.0 | 2.0 | 0.00 | 0.01 | 0.01 | 78 | 1017.1 |
| 20260505210204 | 40 | 341 | 1.0 | 2.0 | 0.00 | 0.01 | 0.01 | 78 | 1017.1 |
| 20260505210003 | 40 | 341 | 1.0 | 2.0 | 0.00 | 0.01 | 0.01 | 78 | 1017.1 |
| 20260505205803 | 40 | 341 | 1.0 | 2.0 | 0.00 | 0.01 | 0.01 | 78 | 1017.2 |
| 20260505205603 | 40 | 341 | 1.0 | 2.0 | 0.00 | 0.01 | 0.01 | 78 | 1017.1 |
| 20260505205404 | 40 | 341 | 1.0 | 4.0 | 0.00 | 0.01 | 0.01 | 78 | 1017.1 |
| 20260505205203 | 40 | 341 | 1.0 | 4.0 | 0.00 | 0.01 | 0.01 | 78 | 1017.1 |
| 20260505205003 | 40 | 341 | 1.0 | 4.0 | 0.00 | 0.01 | 0.01 | 78 | 1017.1 |
| 20260505204803 | 40 | 341 | 1.0 | 4.0 | 0.00 | 0.01 | 0.01 | 78 | 1017.1 |
| 20260505204603 | 40 | 341 | 1.0 | 4.0 | 0.00 | 0.01 | 0.01 | 77 | 1017.1 |
| 20260505204403 | 40 | 341 | 0.0 | 2.0 | 0.00 | 0.01 | 0.01 | 77 | 1017.1 |
| 20260505204203 | 40 | 341 | 0.0 | 2.0 | 0.00 | 0.01 | 0.01 | 77 | 1017.1 |
| 20260505204004 | 40 | 341 | 0.0 | 2.0 | 0.00 | 0.01 | 0.01 | 76 | 1017.1 |
| 20260505203804 | 40 | 341 | 0.0 | 2.0 | 0.00 | 0.01 | 0.01 | 76 | 1017.2 |
| 20260505203603 | 40 | 341 | 0.0 | 2.0 | 0.00 | 0.01 | 0.01 | 76 | 1017.1 |
| 20260505203404 | 40 | 341 | 0.0 | 2.0 | 0.00 | 0.01 | 0.01 | 76 | 1017.1 |
| 20260505203204 | 40 | 341 | 0.0 | 2.0 | 0.00 | 0.01 | 0.01 | 76 | 1017.1 |
| 20260505203003 | 40 | 341 | 0.0 | 2.0 | 0.00 | 0.01 | 0.01 | 76 | 1017.2 |
| 20260505202804 | 40 | 341 | 0.0 | 2.0 | 0.00 | 0.01 | 0.01 | 76 | 1017.1 |
| 20260505202605 | 40 | 341 | 0.0 | 2.0 | 0.00 | 0.01 | 0.01 | 76 | 1017.2 |
| 20260505202403 | 40 | 341 | 0.0 | 2.0 | 0.00 | 0.01 | 0.01 | 76 | 1017.1 |
| 20260505202204 | 41 | 341 | 0.0 | 1.0 | 0.00 | 0.01 | 0.01 | 76 | 1017.1 |
| 20260505202004 | 41 | 341 | 0.0 | 1.0 | 0.00 | 0.01 | 0.01 | 75 | 1017.1 |
| 20260505201804 | 41 | 341 | 0.0 | 1.0 | 0.00 | 0.01 | 0.01 | 75 | 1017.1 |
| 20260505201604 | 41 | 341 | 0.0 | 2.0 | 0.00 | 0.01 | 0.01 | 75 | 1017.1 |
| 20260505201404 | 41 | 340 | 0.0 | 2.0 | 0.00 | 0.01 | 0.01 | 75 | 1017.1 |
| 20260505201203 | 41 | 340 | 1.0 | 2.0 | 0.00 | 0.01 | 0.01 | 75 | 1017.2 |
| 20260505201003 | 41 | 340 | 1.0 | 4.0 | 0.00 | 0.01 | 0.01 | 75 | 1017.2 |
| 20260505200803 | 41 | 340 | 1.0 | 4.0 | 0.00 | 0.01 | 0.01 | 75 | 1017.1 |
| 20260505200603 | 41 | 340 | 1.0 | 4.0 | 0.00 | 0.01 | 0.01 | 75 | 1017.1 |
| 20260505200403 | 41 | 340 | 1.0 | 4.0 | 0.00 | 0.01 | 0.01 | 75 | 1017.1 |
| 20260505200203 | 41 | 340 | 1.0 | 4.0 | 0.00 | 0.01 | 0.01 | 74 | 1017.1 |
| 20260505200003 | 41 | 340 | 1.0 | 4.0 | 0.00 | 0.01 | 0.01 | 74 | 1017.1 |
| 20260505195803 | 41 | 340 | 1.0 | 2.0 | 0.00 | 0.01 | 0.01 | 74 | 1017.1 |
| 20260505195604 | 41 | 340 | 1.0 | 2.0 | 0.00 | 0.01 | 0.01 | 74 | 1017.0 |
| 20260505195404 | 41 | 340 | 1.0 | 4.0 | 0.00 | 0.01 | 0.01 | 74 | 1017.1 |
| 20260505195203 | 41 | 340 | 2.0 | 4.0 | 0.00 | 0.01 | 0.01 | 74 | 1017.0 |
| 20260505195003 | 42 | 340 | 2.0 | 4.0 | 0.00 | 0.01 | 0.01 | 74 | 1017.1 |
| 20260505194804 | 42 | 340 | 2.0 | 5.0 | 0.00 | 0.01 | 0.01 | 73 | 1017.0 |
| 20260505194604 | 42 | 340 | 2.0 | 5.0 | 0.00 | 0.01 | 0.01 | 73 | 1017.0 |
| 20260505194404 | 42 | 340 | 2.0 | 5.0 | 0.00 | 0.01 | 0.01 | 73 | 1017.0 |
| 20260505194203 | 42 | 340 | 2.0 | 5.0 | 0.00 | 0.01 | 0.01 | 73 | 1017.0 |
| 20260505194004 | 42 | 340 | 2.0 | 5.0 | 0.00 | 0.01 | 0.01 | 73 | 1017.1 |
| 20260505193805 | 42 | 340 | 2.0 | 5.0 | 0.00 | 0.01 | 0.01 | 72 | 1017.0 |
| 20260505193603 | 42 | 340 | 2.0 | 5.0 | 0.00 | 0.01 | 0.01 | 72 | 1017.1 |
| 20260505193404 | 42 | 340 | 2.0 | 5.0 | 0.00 | 0.01 | 0.01 | 72 | 1017.0 |
| 20260505193204 | 42 | 340 | 3.0 | 5.0 | 0.00 | 0.01 | 0.01 | 71 | 1017.0 |
| 20260505193003 | 42 | 341 | 3.0 | 5.0 | 0.00 | 0.01 | 0.01 | 71 | 1017.0 |
| 20260505192803 | 43 | 340 | 3.0 | 6.0 | 0.00 | 0.01 | 0.01 | 71 | 1016.9 |
| 20260505192604 | 43 | 341 | 4.0 | 6.0 | 0.00 | 0.01 | 0.01 | 70 | 1016.9 |
| 20260505192404 | 43 | 341 | 4.0 | 6.0 | 0.00 | 0.01 | 0.01 | 70 | 1017.0 |
| 20260505192204 | 43 | 340 | 4.0 | 6.0 | 0.00 | 0.01 | 0.01 | 69 | 1017.0 |
| 20260505192003 | 43 | 338 | 4.0 | 7.0 | 0.00 | 0.01 | 0.01 | 69 | 1016.9 |
| 20260505191804 | 43 | 338 | 4.0 | 7.0 | 0.00 | 0.01 | 0.01 | 69 | 1016.9 |
| 20260505191603 | 43 | 337 | 4.0 | 7.0 | 0.00 | 0.01 | 0.01 | 69 | 1016.9 |
| 20260505191404 | 43 | 336 | 4.0 | 7.0 | 0.00 | 0.01 | 0.01 | 68 | 1016.9 |
| 20260505191203 | 43 | 335 | 4.0 | 7.0 | 0.00 | 0.01 | 0.01 | 68 | 1016.8 |
| 20260505191003 | 43 | 337 | 4.0 | 7.0 | 0.00 | 0.01 | 0.01 | 68 | 1016.9 |
| 20260505190804 | 44 | 336 | 4.0 | 7.0 | 0.00 | 0.01 | 0.01 | 67 | 1016.8 |
| 20260505190603 | 44 | 336 | 4.0 | 7.0 | 0.00 | 0.01 | 0.01 | 67 | 1016.8 |
| 20260505190403 | 44 | 337 | 4.0 | 7.0 | 0.00 | 0.01 | 0.01 | 67 | 1016.8 |
| 20260505190203 | 44 | 339 | 4.0 | 7.0 | 0.00 | 0.01 | 0.01 | 67 | 1016.8 |
| 20260505190003 | 44 | 339 | 4.0 | 6.0 | 0.00 | 0.01 | 0.01 | 67 | 1016.8 |
| 20260505185804 | 44 | 340 | 4.0 | 6.0 | 0.00 | 0.01 | 0.01 | 67 | 1016.8 |
| 20260505185604 | 44 | 340 | 4.0 | 7.0 | 0.00 | 0.01 | 0.01 | 67 | 1016.8 |
| 20260505185404 | 44 | 341 | 4.0 | 11.0 | 0.00 | 0.01 | 0.01 | 66 | 1016.8 |
| 20260505185204 | 44 | 339 | 5.0 | 12.0 | 0.00 | 0.01 | 0.01 | 66 | 1016.8 |
| 20260505185003 | 45 | 338 | 5.0 | 12.0 | 0.00 | 0.01 | 0.01 | 66 | 1016.9 |
| 20260505184803 | 45 | 337 | 5.0 | 12.0 | 0.00 | 0.01 | 0.01 | 65 | 1016.8 |
| 20260505184604 | 45 | 336 | 5.0 | 12.0 | 0.00 | 0.01 | 0.01 | 64 | 1016.8 |
| 20260505184403 | 45 | 335 | 6.0 | 12.0 | 0.00 | 0.01 | 0.01 | 64 | 1016.8 |
| 20260505184204 | 45 | 334 | 6.0 | 13.0 | 0.00 | 0.01 | 0.01 | 64 | 1016.9 |
| 20260505184003 | 45 | 334 | 6.0 | 13.0 | 0.00 | 0.01 | 0.01 | 64 | 1016.9 |
| 20260505183803 | 45 | 336 | 6.0 | 13.0 | 0.00 | 0.01 | 0.01 | 64 | 1016.9 |
| 20260505183604 | 45 | 335 | 7.0 | 14.0 | 0.00 | 0.01 | 0.01 | 63 | 1016.8 |
| 20260505183404 | 45 | 334 | 8.0 | 14.0 | 0.00 | 0.01 | 0.01 | 63 | 1016.9 |
| 20260505183203 | 45 | 335 | 8.0 | 14.0 | 0.00 | 0.01 | 0.01 | 62 | 1016.9 |
| 20260505183004 | 46 | 336 | 7.0 | 14.0 | 0.00 | 0.01 | 0.01 | 61 | 1016.9 |
| 20260505182803 | 46 | 336 | 6.0 | 14.0 | 0.00 | 0.01 | 0.01 | 61 | 1016.9 |
| 20260505182603 | 46 | 338 | 6.0 | 14.0 | 0.00 | 0.01 | 0.01 | 60 | 1016.9 |
| 20260505182405 | 46 | 339 | 5.0 | 13.0 | 0.00 | 0.01 | 0.01 | 58 | 1016.9 |
| 20260505182203 | 46 | 339 | 5.0 | 13.0 | 0.00 | 0.01 | 0.01 | 57 | 1016.9 |
| 20260505182003 | 46 | 337 | 6.0 | 13.0 | 0.00 | 0.01 | 0.01 | 57 | 1016.9 |
| 20260505181803 | 46 | 336 | 6.0 | 13.0 | 0.00 | 0.01 | 0.01 | 57 | 1016.9 |
| 20260505181603 | 47 | 334 | 6.0 | 13.0 | 0.00 | 0.01 | 0.01 | 56 | 1016.9 |
| 20260505181403 | 47 | 333 | 5.0 | 11.0 | 0.00 | 0.01 | 0.01 | 56 | 1016.9 |
| 20260505181203 | 47 | 331 | 5.0 | 11.0 | 0.00 | 0.02 | 0.01 | 55 | 1016.9 |
| 20260505181003 | 48 | 332 | 5.0 | 11.0 | 0.00 | 0.02 | 0.01 | 55 | 1016.9 |
| 20260505180803 | 48 | 332 | 5.0 | 11.0 | 0.00 | 0.02 | 0.01 | 56 | 1016.9 |
| 20260505180603 | 48 | 333 | 5.0 | 11.0 | 0.00 | 0.02 | 0.01 | 56 | 1016.9 |
| 20260505180405 | 48 | 335 | 5.0 | 10.0 | 0.00 | 0.02 | 0.01 | 56 | 1016.8 |
| 20260505180205 | 48 | 337 | 5.0 | 10.0 | 0.00 | 0.02 | 0.01 | 56 | 1016.9 |
| 20260505180003 | 48 | 337 | 5.0 | 10.0 | 0.00 | 0.02 | 0.01 | 57 | 1016.9 |
| 20260505175804 | 47 | 339 | 5.0 | 8.0 | 0.00 | 0.02 | 0.01 | 57 | 1016.8 |
| 20260505175603 | 47 | 339 | 5.0 | 8.0 | 0.00 | 0.02 | 0.01 | 56 | 1016.9 |
| 20260505175404 | 47 | 339 | 4.0 | 10.0 | 0.00 | 0.02 | 0.01 | 56 | 1016.9 |
| 20260505175203 | 47 | 340 | 4.0 | 10.0 | 0.00 | 0.02 | 0.01 | 56 | 1016.9 |
| 20260505175004 | 47 | 340 | 4.0 | 10.0 | 0.00 | 0.02 | 0.01 | 56 | 1016.9 |
| 20260505174803 | 47 | 340 | 4.0 | 10.0 | 0.00 | 0.02 | 0.01 | 56 | 1016.8 |
| 20260505174604 | 47 | 341 | 3.0 | 10.0 | 0.00 | 0.02 | 0.01 | 56 | 1016.8 |
| 20260505174403 | 47 | 344 | 4.0 | 10.0 | 0.00 | 0.02 | 0.01 | 56 | 1016.8 |
| 20260505174204 | 47 | 343 | 4.0 | 10.0 | 0.00 | 0.02 | 0.01 | 56 | 1016.9 |
| 20260505174003 | 47 | 343 | 4.0 | 10.0 | 0.00 | 0.02 | 0.01 | 56 | 1016.9 |
| 20260505173804 | 47 | 343 | 4.0 | 10.0 | 0.00 | 0.02 | 0.01 | 56 | 1016.9 |
| 20260505173603 | 47 | 341 | 5.0 | 10.0 | 0.00 | 0.02 | 0.01 | 56 | 1016.9 |
| 20260505173403 | 47 | 339 | 5.0 | 11.0 | 0.00 | 0.02 | 0.01 | 56 | 1016.9 |
| 20260505173205 | 47 | 338 | 5.0 | 14.0 | 0.00 | 0.02 | 0.01 | 56 | 1016.8 |
| 20260505173003 | 47 | 338 | 5.0 | 14.0 | 0.00 | 0.02 | 0.01 | 54 | 1016.9 |
| 20260505172803 | 47 | 338 | 6.0 | 14.0 | 0.00 | 0.02 | 0.01 | 55 | 1017.0 |
| 20260505172603 | 47 | 339 | 6.0 | 14.0 | 0.00 | 0.02 | 0.01 | 55 | 1016.8 |
| 20260505172403 | 47 | 339 | 6.0 | 14.0 | 0.00 | 0.02 | 0.01 | 55 | 1016.9 |
| 20260505172204 | 47 | 338 | 5.0 | 12.0 | 0.00 | 0.02 | 0.01 | 55 | 1016.9 |
| 20260505172003 | 47 | 340 | 6.0 | 12.0 | 0.00 | 0.02 | 0.01 | 56 | 1016.9 |
| 20260505171804 | 47 | 339 | 6.0 | 13.0 | 0.00 | 0.02 | 0.01 | 56 | 1016.9 |
| 20260505171605 | 47 | 340 | 6.0 | 13.0 | 0.00 | 0.02 | 0.01 | 56 | 1016.9 |
| 20260505171403 | 47 | 341 | 7.0 | 13.0 | 0.00 | 0.02 | 0.01 | 55 | 1016.8 |
| 20260505171203 | 48 | 343 | 7.0 | 14.0 | 0.00 | 0.02 | 0.01 | 54 | 1016.9 |
| 20260505171004 | 48 | 342 | 7.0 | 14.0 | 0.00 | 0.02 | 0.01 | 54 | 1016.8 |
| 20260505170804 | 48 | 345 | 7.0 | 14.0 | 0.00 | 0.02 | 0.01 | 53 | 1016.8 |
| 20260505170603 | 48 | 348 | 6.0 | 14.0 | 0.00 | 0.02 | 0.01 | 52 | 1016.8 |
| 20260505170403 | 49 | 354 | 5.0 | 14.0 | 0.00 | 0.02 | 0.01 | 52 | 1016.7 |
| 20260505170203 | 49 | 352 | 4.0 | 12.0 | 0.00 | 0.02 | 0.01 | 51 | 1016.8 |
| 20260505170004 | 49 | 350 | 4.0 | 11.0 | 0.00 | 0.02 | 0.01 | 51 | 1016.8 |
| 20260505165804 | 50 | 345 | 4.0 | 12.0 | 0.00 | 0.02 | 0.01 | 51 | 1016.7 |
| 20260505165603 | 50 | 337 | 5.0 | 13.0 | 0.00 | 0.02 | 0.01 | 51 | 1016.8 |
| 20260505165405 | 50 | 334 | 5.0 | 13.0 | 0.00 | 0.02 | 0.01 | 52 | 1016.7 |
| 20260505165203 | 50 | 333 | 5.0 | 13.0 | 0.00 | 0.02 | 0.01 | 52 | 1016.7 |
| 20260505165003 | 50 | 335 | 5.0 | 13.0 | 0.00 | 0.02 | 0.01 | 53 | 1016.7 |
| 20260505164803 | 50 | 339 | 5.0 | 13.0 | 0.00 | 0.02 | 0.01 | 51 | 1016.7 |
| 20260505164604 | 50 | 341 | 5.0 | 12.0 | 0.00 | 0.02 | 0.01 | 51 | 1016.6 |
| 20260505164404 | 50 | 342 | 5.0 | 12.0 | 0.00 | 0.02 | 0.01 | 49 | 1016.7 |
| 20260505164204 | 50 | 342 | 5.0 | 12.0 | 0.00 | 0.02 | 0.01 | 49 | 1016.7 |
| 20260505164004 | 50 | 340 | 6.0 | 17.0 | 0.00 | 0.02 | 0.01 | 49 | 1016.7 |
| 20260505163804 | 50 | 336 | 7.0 | 17.0 | 0.00 | 0.02 | 0.01 | 50 | 1016.8 |
| 20260505163603 | 50 | 335 | 7.0 | 17.0 | 0.00 | 0.02 | 0.01 | 49 | 1016.7 |
| 20260505163404 | 50 | 335 | 7.0 | 17.0 | 0.00 | 0.02 | 0.01 | 50 | 1016.7 |
| 20260505163204 | 50 | 335 | 7.0 | 17.0 | 0.00 | 0.02 | 0.01 | 50 | 1016.7 |
| 20260505163003 | 50 | 336 | 6.0 | 14.0 | 0.00 | 0.02 | 0.01 | 50 | 1016.7 |
| 20260505162804 | 50 | 337 | 6.0 | 14.0 | 0.00 | 0.02 | 0.01 | 51 | 1016.7 |
| 20260505162605 | 50 | 336 | 7.0 | 13.0 | 0.00 | 0.02 | 0.01 | 49 | 1016.7 |
| 20260505162403 | 50 | 336 | 7.0 | 13.0 | 0.00 | 0.02 | 0.01 | 50 | 1016.6 |
| 20260505162203 | 50 | 337 | 7.0 | 13.0 | 0.00 | 0.02 | 0.01 | 49 | 1016.6 |
| 20260505162004 | 50 | 339 | 6.0 | 13.0 | 0.00 | 0.02 | 0.01 | 48 | 1016.6 |
| 20260505161804 | 50 | 341 | 6.0 | 13.0 | 0.00 | 0.02 | 0.01 | 49 | 1016.5 |
| 20260505161603 | 50 | 342 | 6.0 | 20.0 | 0.00 | 0.02 | 0.01 | 49 | 1016.6 |
| 20260505161404 | 50 | 341 | 7.0 | 20.0 | 0.00 | 0.02 | 0.01 | 47 | 1016.5 |
| 20260505161204 | 50 | 341 | 7.0 | 20.0 | 0.00 | 0.02 | 0.01 | 47 | 1016.6 |
| 20260505161003 | 50 | 341 | 8.0 | 20.0 | 0.00 | 0.02 | 0.01 | 46 | 1016.6 |
| 20260505160804 | 50 | 339 | 7.0 | 20.0 | 0.00 | 0.02 | 0.01 | 46 | 1016.6 |
| 20260505160604 | 50 | 340 | 7.0 | 17.0 | 0.00 | 0.02 | 0.01 | 44 | 1016.6 |
| 20260505160404 | 50 | 343 | 6.0 | 14.0 | 0.00 | 0.02 | 0.01 | 42 | 1016.6 |
| 20260505160203 | 50 | 342 | 7.0 | 14.0 | 0.00 | 0.02 | 0.01 | 44 | 1016.6 |
| 20260505153203 | 51 | 341 | 8.0 | 17.0 | 0.00 | 0.02 | 0.01 | 46 | 1016.5 |
| 20260505153003 | 51 | 339 | 8.0 | 13.0 | 0.00 | 0.02 | 0.01 | 48 | 1016.6 |
| 20260505152804 | 51 | 339 | 8.0 | 14.0 | 0.00 | 0.02 | 0.01 | 48 | 1016.5 |
| 20260505152603 | 51 | 337 | 9.0 | 18.0 | 0.00 | 0.02 | 0.01 | 48 | 1016.5 |
| 20260505152403 | 50 | 337 | 10.0 | 20.0 | 0.00 | 0.02 | 0.01 | 47 | 1016.5 |
| 20260505152203 | 50 | 338 | 10.0 | 20.0 | 0.00 | 0.02 | 0.01 | 48 | 1016.6 |
| 20260505152003 | 50 | 338 | 11.0 | 20.0 | 0.00 | 0.02 | 0.01 | 48 | 1016.5 |
| 20260505151804 | 50 | 338 | 11.0 | 20.0 | 0.00 | 0.02 | 0.01 | 48 | 1016.6 |
| 20260505151604 | 50 | 339 | 11.0 | 20.0 | 0.00 | 0.02 | 0.01 | 50 | 1016.6 |
| 20260505151403 | 50 | 339 | 11.0 | 19.0 | 0.00 | 0.02 | 0.01 | 50 | 1016.5 |
| 20260505151203 | 50 | 337 | 11.0 | 19.0 | 0.00 | 0.02 | 0.01 | 49 | 1016.5 |
| 20260505151003 | 50 | 336 | 11.0 | 19.0 | 0.00 | 0.02 | 0.01 | 49 | 1016.6 |
| 20260505150804 | 50 | 336 | 10.0 | 19.0 | 0.00 | 0.02 | 0.01 | 50 | 1016.6 |
| 20260505150603 | 50 | 336 | 9.0 | 19.0 | 0.00 | 0.02 | 0.01 | 49 | 1016.6 |
| 20260505150403 | 50 | 335 | 9.0 | 18.0 | 0.00 | 0.02 | 0.01 | 51 | 1016.5 |
| 20260505150203 | 50 | 335 | 9.0 | 18.0 | 0.00 | 0.02 | 0.01 | 53 | 1016.6 |
| 20260505140603 | 48 | 347 | 5.0 | 13.0 | 0.00 | 0.02 | 0.01 | 61 | 1016.1 |
| 20260505140403 | 47 | 346 | 6.0 | 13.0 | 0.00 | 0.02 | 0.01 | 61 | 1016.1 |
| 20260505140203 | 48 | 349 | 6.0 | 14.0 | 0.00 | 0.02 | 0.01 | 61 | 1016.1 |
| 20260505130204 | 49 | 339 | 10.0 | 19.0 | 0.00 | 0.02 | 0.01 | 58 | 1016.2 |
| 20260505125004 | 49 | 340 | 9.0 | 18.0 | 0.00 | 0.02 | 0.01 | 61 | 1016.2 |
| 20260505124804 | 48 | 342 | 8.0 | 18.0 | 0.00 | 0.02 | 0.01 | 60 | 1016.2 |
| 20260505124603 | 48 | 345 | 8.0 | 18.0 | 0.00 | 0.02 | 0.01 | 60 | 1016.2 |
| 20260505124403 | 49 | 348 | 7.0 | 16.0 | 0.00 | 0.02 | 0.01 | 60 | 1016.2 |
| 20260505124203 | 49 | 346 | 7.0 | 16.0 | 0.00 | 0.02 | 0.01 | 61 | 1016.2 |
| 20260505124004 | 48 | 343 | 7.0 | 16.0 | 0.00 | 0.02 | 0.01 | 62 | 1016.2 |
| 20260505123803 | 48 | 341 | 8.0 | 16.0 | 0.00 | 0.02 | 0.01 | 63 | 1016.2 |
| 20260505123604 | 48 | 340 | 8.0 | 19.0 | 0.00 | 0.02 | 0.01 | 64 | 1016.2 |
| 20260505123404 | 48 | 340 | 9.0 | 19.0 | 0.00 | 0.02 | 0.01 | 65 | 1016.2 |
| 20260505123203 | 48 | 341 | 9.0 | 19.0 | 0.00 | 0.02 | 0.01 | 63 | 1016.3 |
| 20260505123004 | 47 | 339 | 10.0 | 19.0 | 0.00 | 0.02 | 0.01 | 63 | 1016.2 |
| 20260505122804 | 47 | 338 | 11.0 | 20.0 | 0.00 | 0.02 | 0.01 | 63 | 1016.3 |
| 20260505122603 | 47 | 337 | 10.0 | 20.0 | 0.00 | 0.02 | 0.01 | 63 | 1016.2 |
| 20260505122405 | 47 | 338 | 10.0 | 20.0 | 0.00 | 0.02 | 0.01 | 63 | 1016.2 |
| 20260505122203 | 47 | 337 | 10.0 | 20.0 | 0.00 | 0.02 | 0.01 | 63 | 1016.2 |
| 20260505122003 | 47 | 338 | 11.0 | 20.0 | 0.00 | 0.02 | 0.01 | 63 | 1016.2 |
| 20260505121803 | 47 | 338 | 10.0 | 17.0 | 0.00 | 0.02 | 0.01 | 64 | 1016.1 |
| 20260505121603 | 47 | 338 | 10.0 | 18.0 | 0.00 | 0.02 | 0.01 | 64 | 1016.2 |
| 20260505121405 | 46 | 337 | 10.0 | 18.0 | 0.00 | 0.02 | 0.01 | 64 | 1016.2 |
| 20260505121203 | 46 | 337 | 10.0 | 18.0 | 0.00 | 0.02 | 0.01 | 64 | 1016.1 |
| 20260505121004 | 46 | 336 | 10.0 | 18.0 | 0.00 | 0.02 | 0.01 | 63 | 1016.1 |
| 20260505120803 | 46 | 336 | 10.0 | 18.0 | 0.00 | 0.02 | 0.01 | 63 | 1016.2 |
| 20260505120603 | 46 | 336 | 9.0 | 17.0 | 0.00 | 0.02 | 0.01 | 63 | 1016.1 |
| 20260505120403 | 46 | 336 | 9.0 | 17.0 | 0.00 | 0.02 | 0.01 | 65 | 1016.1 |
| 20260505120203 | 46 | 336 | 8.0 | 13.0 | 0.00 | 0.02 | 0.01 | 65 | 1016.2 |
| 20260505120005 | 46 | 335 | 8.0 | 16.0 | 0.00 | 0.02 | 0.01 | 66 | 1016.2 |
| 20260505115803 | 46 | 335 | 9.0 | 16.0 | 0.00 | 0.02 | 0.01 | 65 | 1016.2 |
| 20260505115604 | 46 | 336 | 9.0 | 18.0 | 0.00 | 0.02 | 0.01 | 65 | 1016.1 |
| 20260505115403 | 46 | 336 | 9.0 | 18.0 | 0.00 | 0.02 | 0.01 | 65 | 1016.1 |
| 20260505115204 | 45 | 336 | 9.0 | 18.0 | 0.00 | 0.02 | 0.01 | 65 | 1016.1 |
| 20260505115005 | 45 | 337 | 9.0 | 18.0 | 0.00 | 0.02 | 0.01 | 65 | 1016.2 |
| 20260505114804 | 45 | 336 | 9.0 | 18.0 | 0.00 | 0.02 | 0.01 | 66 | 1016.2 |
| 20260505114603 | 45 | 335 | 9.0 | 16.0 | 0.00 | 0.02 | 0.01 | 68 | 1016.1 |
| 20260505114403 | 45 | 336 | 10.0 | 16.0 | 0.00 | 0.02 | 0.01 | 68 | 1016.1 |
| 20260505114205 | 45 | 337 | 10.0 | 16.0 | 0.00 | 0.02 | 0.01 | 68 | 1016.1 |
| 20260505114003 | 45 | 337 | 10.0 | 17.0 | 0.00 | 0.02 | 0.01 | 67 | 1016.1 |
| 20260505113804 | 46 | 337 | 11.0 | 18.0 | 0.00 | 0.02 | 0.01 | 68 | 1016.0 |
| 20260505113604 | 46 | 338 | 10.0 | 18.0 | 0.00 | 0.02 | 0.01 | 69 | 1016.0 |
| 20260505113404 | 46 | 337 | 10.0 | 18.0 | 0.00 | 0.02 | 0.01 | 68 | 1016.0 |
| 20260505113203 | 46 | 336 | 11.0 | 18.0 | 0.00 | 0.02 | 0.01 | 69 | 1016.0 |
| 20260505113004 | 46 | 336 | 10.0 | 18.0 | 0.00 | 0.02 | 0.01 | 69 | 1016.0 |
| 20260505112804 | 46 | 336 | 10.0 | 17.0 | 0.00 | 0.02 | 0.01 | 70 | 1016.0 |
| 20260505112603 | 46 | 336 | 11.0 | 24.0 | 0.00 | 0.02 | 0.01 | 70 | 1016.0 |
| 20260505112404 | 46 | 335 | 10.0 | 24.0 | 0.00 | 0.02 | 0.01 | 70 | 1015.9 |
| 20260505112203 | 46 | 335 | 10.0 | 24.0 | 0.00 | 0.02 | 0.01 | 70 | 1015.9 |
| 20260505112003 | 46 | 334 | 11.0 | 24.0 | 0.00 | 0.02 | 0.01 | 69 | 1015.9 |
| 20260505111805 | 46 | 334 | 11.0 | 24.0 | 0.00 | 0.02 | 0.01 | 69 | 1015.9 |
| 20260505111603 | 46 | 334 | 10.0 | 22.0 | 0.00 | 0.02 | 0.01 | 68 | 1015.9 |
| 20260505111403 | 46 | 335 | 10.0 | 22.0 | 0.00 | 0.02 | 0.01 | 67 | 1015.8 |
| 20260505111204 | 46 | 337 | 10.0 | 17.0 | 0.00 | 0.02 | 0.01 | 67 | 1015.9 |
| 20260505111005 | 46 | 338 | 10.0 | 17.0 | 0.00 | 0.02 | 0.01 | 68 | 1015.9 |
| 20260505110804 | 46 | 340 | 9.0 | 17.0 | 0.00 | 0.02 | 0.01 | 67 | 1015.9 |
| 20260505110604 | 46 | 339 | 9.0 | 17.0 | 0.00 | 0.02 | 0.01 | 67 | 1015.9 |
| 20260505110403 | 46 | 339 | 9.0 | 17.0 | 0.00 | 0.02 | 0.01 | 69 | 1015.9 |
| 20260505110203 | 47 | 337 | 9.0 | 17.0 | 0.00 | 0.02 | 0.01 | 69 | 1015.9 |
| 20260505102203 | 47 | 337 | 9.0 | 18.0 | 0.00 | 0.02 | 0.01 | 71 | 1015.8 |
| 20260505102003 | 47 | 337 | 10.0 | 18.0 | 0.00 | 0.02 | 0.01 | 70 | 1015.8 |
| 20260505101803 | 47 | 337 | 11.0 | 18.0 | 0.00 | 0.02 | 0.01 | 70 | 1015.8 |
| 20260505101603 | 47 | 338 | 10.0 | 18.0 | 0.00 | 0.02 | 0.01 | 70 | 1015.8 |
| 20260505101405 | 47 | 338 | 10.0 | 18.0 | 0.00 | 0.02 | 0.01 | 69 | 1015.8 |
| 20260505101203 | 48 | 338 | 10.0 | 22.0 | 0.00 | 0.02 | 0.01 | 69 | 1015.8 |
| 20260505101003 | 48 | 338 | 10.0 | 22.0 | 0.00 | 0.02 | 0.01 | 68 | 1015.8 |
| 20260505100803 | 48 | 338 | 11.0 | 22.0 | 0.00 | 0.02 | 0.01 | 69 | 1015.8 |
| 20260505100603 | 48 | 338 | 11.0 | 22.0 | 0.00 | 0.02 | 0.01 | 70 | 1015.7 |
| 20260505100403 | 48 | 338 | 11.0 | 22.0 | 0.00 | 0.02 | 0.01 | 70 | 1015.8 |
| 20260505100203 | 47 | 338 | 11.0 | 19.0 | 0.00 | 0.02 | 0.01 | 72 | 1015.8 |
| 20260505100004 | 47 | 337 | 11.0 | 20.0 | 0.00 | 0.02 | 0.01 | 74 | 1015.8 |
| 20260505095803 | 46 | 337 | 10.0 | 20.0 | 0.00 | 0.02 | 0.01 | 74 | 1015.7 |
| 20260505095603 | 46 | 336 | 11.0 | 20.0 | 0.00 | 0.02 | 0.01 | 74 | 1015.7 |
| 20260505095403 | 46 | 336 | 11.0 | 20.0 | 0.00 | 0.02 | 0.01 | 73 | 1015.7 |
| 20260505095204 | 46 | 337 | 11.0 | 20.0 | 0.00 | 0.02 | 0.01 | 73 | 1015.7 |
| 20260505095004 | 45 | 337 | 11.0 | 18.0 | 0.00 | 0.02 | 0.01 | 73 | 1015.8 |
| 20260505094803 | 45 | 336 | 11.0 | 18.0 | 0.00 | 0.02 | 0.01 | 72 | 1015.7 |
| 20260505094603 | 46 | 336 | 11.0 | 18.0 | 0.00 | 0.02 | 0.01 | 73 | 1015.7 |
| 20260505094404 | 46 | 335 | 12.0 | 24.0 | 0.00 | 0.02 | 0.01 | 74 | 1015.6 |
| 20260505094204 | 46 | 334 | 11.0 | 24.0 | 0.00 | 0.02 | 0.01 | 74 | 1015.6 |
| 20260505094003 | 45 | 335 | 11.0 | 24.0 | 0.00 | 0.02 | 0.01 | 74 | 1015.6 |
| 20260505093805 | 45 | 335 | 12.0 | 24.0 | 0.00 | 0.02 | 0.01 | 74 | 1015.6 |
| 20260505093604 | 46 | 335 | 11.0 | 24.0 | 0.00 | 0.02 | 0.01 | 74 | 1015.6 |
| 20260505093403 | 46 | 336 | 11.0 | 17.0 | 0.00 | 0.02 | 0.01 | 74 | 1015.6 |
| 20260505093204 | 46 | 336 | 11.0 | 18.0 | 0.00 | 0.02 | 0.01 | 73 | 1015.6 |
| 20260505093003 | 46 | 336 | 12.0 | 18.0 | 0.00 | 0.02 | 0.01 | 73 | 1015.5 |
| 20260505092805 | 46 | 337 | 11.0 | 20.0 | 0.00 | 0.02 | 0.01 | 73 | 1015.6 |
| 20260505092603 | 46 | 337 | 11.0 | 20.0 | 0.00 | 0.02 | 0.01 | 73 | 1015.6 |
| 20260505092404 | 46 | 337 | 11.0 | 20.0 | 0.00 | 0.02 | 0.01 | 73 | 1015.6 |
| 20260505092203 | 46 | 336 | 11.0 | 20.0 | 0.00 | 0.02 | 0.01 | 74 | 1015.4 |
| 20260505092003 | 46 | 335 | 10.0 | 20.0 | 0.00 | 0.02 | 0.01 | 74 | 1015.4 |
| 20260505091804 | 45 | 335 | 11.0 | 17.0 | 0.00 | 0.02 | 0.01 | 74 | 1015.4 |
| 20260505091603 | 45 | 335 | 10.0 | 17.0 | 0.00 | 0.02 | 0.01 | 74 | 1015.5 |
| 20260505091403 | 45 | 336 | 10.0 | 17.0 | 0.00 | 0.02 | 0.01 | 75 | 1015.4 |
| 20260505091203 | 45 | 336 | 10.0 | 17.0 | 0.00 | 0.02 | 0.01 | 75 | 1015.4 |
| 20260505091003 | 45 | 336 | 10.0 | 17.0 | 0.00 | 0.02 | 0.01 | 76 | 1015.3 |
| 20260505090805 | 45 | 336 | 9.0 | 16.0 | 0.00 | 0.02 | 0.01 | 76 | 1015.3 |
| 20260505090604 | 45 | 336 | 9.0 | 16.0 | 0.00 | 0.02 | 0.01 | 77 | 1015.3 |
| 20260505090405 | 45 | 335 | 9.0 | 16.0 | 0.00 | 0.02 | 0.01 | 78 | 1015.3 |
| 20260505090203 | 44 | 336 | 9.0 | 18.0 | 0.00 | 0.02 | 0.01 | 79 | 1015.3 |
| 20260505090003 | 44 | 337 | 9.0 | 18.0 | 0.00 | 0.02 | 0.01 | 79 | 1015.2 |
| 20260505085804 | 44 | 337 | 10.0 | 18.0 | 0.00 | 0.02 | 0.01 | 79 | 1015.3 |
| 20260505085603 | 44 | 338 | 10.0 | 18.0 | 0.00 | 0.02 | 0.01 | 79 | 1015.3 |
| 20260505085403 | 44 | 340 | 10.0 | 18.0 | 0.00 | 0.02 | 0.01 | 79 | 1015.2 |
| 20260505085203 | 44 | 339 | 11.0 | 20.0 | 0.00 | 0.02 | 0.01 | 79 | 1015.2 |
| 20260505085004 | 44 | 339 | 11.0 | 20.0 | 0.00 | 0.02 | 0.01 | 78 | 1015.2 |
| 20260505084803 | 44 | 337 | 11.0 | 20.0 | 0.00 | 0.02 | 0.01 | 78 | 1015.1 |
| 20260505084604 | 44 | 338 | 11.0 | 20.0 | 0.00 | 0.02 | 0.01 | 78 | 1015.1 |